Pond Inlet Airport

CYIO | YIO

Pond Inlet , Nunavut , Canada

Sunday, January 19th, 2020 | 14:40

Weather

CYIO 191900Z AUTO 17004KT 9SM BKN130 BKN150 M35/M39 A2927 RMK SLP926

Charts

No Charts Available

Gates

No Gates Available

Runways

1 Available

Events

No events for this airport


New event